logo
Search for airport 
image banner adimage banner adimage banner ad
image banner ad

FLFR - Luangwa

Located in Luangwa, Zambia

ICAO - , IATA -

Data provided by Airmate  

General information

Coordinates: S15°36'24" E30°23'59"
Elevation is 1100 feet MSL.
Magnetic variation is -6° East
View others Airports in Lusaka Province

Operational data

Special qualification required
Current time UTC:
Current local time:
Weather at : - ( 0 km )
METAR: CYWK 200627Z AUTO 17015G21KT 3SM -SN FEW009 BKN014 OVC030 00/M01 A2948 RMK ICE PAST HR PRESFR SLP009
View NOTAMs / SUP AIP / TFR affecting this airport [VIEW]
Communications frequencies: [VIEW]

Runways:

RWY identifierQFULength (ft)Width (ft)SurfaceLDA (ft)
27265°318354DIRT
0985°318354DIRT

Airport contact information

Address: Luangwa Zambia

Satellite view of FLFR